sensor_id;sensor_type;location;lat;lon;timestamp;P1;durP1;ratioP1;P2;durP2;ratioP2
28180;SDS011;15464;50.988;10.318;2022-09-23T00:00:59;7.20;;;4.60;;
28180;SDS011;15464;50.988;10.318;2022-09-23T00:03:31;7.50;;;4.20;;
28180;SDS011;15464;50.988;10.318;2022-09-23T00:06:02;6.25;;;4.38;;
28180;SDS011;15464;50.988;10.318;2022-09-23T00:08:31;6.97;;;4.47;;
28180;SDS011;15464;50.988;10.318;2022-09-23T00:11:31;5.95;;;4.10;;
28180;SDS011;15464;50.988;10.318;2022-09-23T00:13:53;7.00;;;4.20;;
28180;SDS011;15464;50.988;10.318;2022-09-23T00:16:26;5.35;;;4.47;;
28180;SDS011;15464;50.988;10.318;2022-09-23T00:18:56;5.63;;;3.80;;
28180;SDS011;15464;50.988;10.318;2022-09-23T00:21:22;5.00;;;4.00;;
28180;SDS011;15464;50.988;10.318;2022-09-23T00:23:50;6.57;;;4.47;;
28180;SDS011;15464;50.988;10.318;2022-09-23T00:26:18;5.82;;;4.07;;
28180;SDS011;15464;50.988;10.318;2022-09-23T00:28:46;7.00;;;4.05;;
28180;SDS011;15464;50.988;10.318;2022-09-23T00:31:15;5.75;;;3.90;;
28180;SDS011;15464;50.988;10.318;2022-09-23T00:33:44;5.65;;;3.80;;
28180;SDS011;15464;50.988;10.318;2022-09-23T00:36:11;6.45;;;3.97;;
28180;SDS011;15464;50.988;10.318;2022-09-23T00:38:42;5.53;;;3.83;;
28180;SDS011;15464;50.988;10.318;2022-09-23T00:41:10;7.00;;;3.88;;
28180;SDS011;15464;50.988;10.318;2022-09-23T00:43:56;5.63;;;4.00;;
28180;SDS011;15464;50.988;10.318;2022-09-23T00:46:28;4.40;;;3.38;;
28180;SDS011;15464;50.988;10.318;2022-09-23T00:49:33;6.70;;;3.47;;
28180;SDS011;15464;50.988;10.318;2022-09-23T00:52:10;4.03;;;3.20;;
28180;SDS011;15464;50.988;10.318;2022-09-23T00:54:40;7.70;;;3.85;;
28180;SDS011;15464;50.988;10.318;2022-09-23T00:57:08;5.15;;;3.67;;
28180;SDS011;15464;50.988;10.318;2022-09-23T00:59:36;6.43;;;3.93;;
28180;SDS011;15464;50.988;10.318;2022-09-23T01:02:03;9.38;;;3.47;;
28180;SDS011;15464;50.988;10.318;2022-09-23T01:04:30;5.82;;;3.92;;
28180;SDS011;15464;50.988;10.318;2022-09-23T01:06:57;6.57;;;3.70;;
28180;SDS011;15464;50.988;10.318;2022-09-23T01:09:24;5.55;;;3.45;;
28180;SDS011;15464;50.988;10.318;2022-09-23T01:20:12;5.65;;;3.78;;
28180;SDS011;15464;50.988;10.318;2022-09-23T01:23:12;8.10;;;3.30;;
28180;SDS011;15464;50.988;10.318;2022-09-23T01:34:35;5.88;;;3.53;;
28180;SDS011;15464;50.988;10.318;2022-09-23T01:38:07;7.28;;;3.38;;
28180;SDS011;15464;50.988;10.318;2022-09-23T01:43:10;5.15;;;3.55;;
28180;SDS011;15464;50.988;10.318;2022-09-23T01:45:41;7.15;;;3.65;;
28180;SDS011;15464;50.988;10.318;2022-09-23T01:50:49;7.50;;;3.80;;
28180;SDS011;15464;50.988;10.318;2022-09-23T01:53:32;6.15;;;3.78;;
28180;SDS011;15464;50.988;10.318;2022-09-23T01:56:07;8.15;;;3.40;;
28180;SDS011;15464;50.988;10.318;2022-09-23T01:58:44;7.70;;;3.47;;
28180;SDS011;15464;50.988;10.318;2022-09-23T02:01:17;6.53;;;3.25;;
28180;SDS011;15464;50.988;10.318;2022-09-23T02:06:35;5.55;;;3.85;;
28180;SDS011;15464;50.988;10.318;2022-09-23T02:09:08;5.40;;;3.53;;
28180;SDS011;15464;50.988;10.318;2022-09-23T02:11:40;6.82;;;3.17;;
28180;SDS011;15464;50.988;10.318;2022-09-23T02:14:21;4.43;;;3.17;;
28180;SDS011;15464;50.988;10.318;2022-09-23T02:16:55;6.45;;;3.53;;
28180;SDS011;15464;50.988;10.318;2022-09-23T02:19:27;5.15;;;3.58;;
28180;SDS011;15464;50.988;10.318;2022-09-23T02:22:07;5.80;;;3.85;;
28180;SDS011;15464;50.988;10.318;2022-09-23T02:24:37;7.30;;;3.55;;
28180;SDS011;15464;50.988;10.318;2022-09-23T02:30:12;12.27;;;3.28;;
28180;SDS011;15464;50.988;10.318;2022-09-23T02:43:21;5.45;;;3.20;;
28180;SDS011;15464;50.988;10.318;2022-09-23T02:45:58;5.20;;;3.17;;
28180;SDS011;15464;50.988;10.318;2022-09-23T02:48:27;5.97;;;3.00;;
28180;SDS011;15464;50.988;10.318;2022-09-23T02:50:59;6.05;;;3.15;;
28180;SDS011;15464;50.988;10.318;2022-09-23T02:53:31;3.90;;;3.40;;
28180;SDS011;15464;50.988;10.318;2022-09-23T02:55:59;4.07;;;3.00;;
28180;SDS011;15464;50.988;10.318;2022-09-23T02:58:27;7.38;;;3.47;;
28180;SDS011;15464;50.988;10.318;2022-09-23T03:06:53;5.00;;;3.67;;
28180;SDS011;15464;50.988;10.318;2022-09-23T03:09:39;4.70;;;3.20;;
28180;SDS011;15464;50.988;10.318;2022-09-23T03:12:15;5.55;;;3.90;;
28180;SDS011;15464;50.988;10.318;2022-09-23T03:15:03;4.57;;;3.45;;
28180;SDS011;15464;50.988;10.318;2022-09-23T03:17:41;5.82;;;3.67;;
28180;SDS011;15464;50.988;10.318;2022-09-23T03:20:14;7.10;;;3.97;;
28180;SDS011;15464;50.988;10.318;2022-09-23T03:23:13;4.45;;;3.78;;
28180;SDS011;15464;50.988;10.318;2022-09-23T03:25:46;3.70;;;3.25;;
28180;SDS011;15464;50.988;10.318;2022-09-23T03:28:15;7.25;;;3.55;;
28180;SDS011;15464;50.988;10.318;2022-09-23T03:30:45;5.43;;;3.50;;
28180;SDS011;15464;50.988;10.318;2022-09-23T03:33:13;4.88;;;3.63;;
28180;SDS011;15464;50.988;10.318;2022-09-23T03:35:47;5.03;;;3.58;;
28180;SDS011;15464;50.988;10.318;2022-09-23T03:38:42;4.60;;;3.40;;
28180;SDS011;15464;50.988;10.318;2022-09-23T03:41:19;6.05;;;4.00;;
28180;SDS011;15464;50.988;10.318;2022-09-23T03:43:54;5.60;;;3.72;;
28180;SDS011;15464;50.988;10.318;2022-09-23T03:46:24;4.78;;;3.75;;
28180;SDS011;15464;50.988;10.318;2022-09-23T03:48:55;4.22;;;3.83;;
28180;SDS011;15464;50.988;10.318;2022-09-23T06:53:01;10.50;;;7.45;;
28180;SDS011;15464;50.988;10.318;2022-09-23T06:55:28;12.20;;;7.97;;
28180;SDS011;15464;50.988;10.318;2022-09-23T06:57:58;12.55;;;7.72;;
28180;SDS011;15464;50.988;10.318;2022-09-23T07:02:51;10.50;;;7.85;;
28180;SDS011;15464;50.988;10.318;2022-09-23T07:05:20;11.52;;;7.63;;
28180;SDS011;15464;50.988;10.318;2022-09-23T07:07:47;17.00;;;9.43;;
28180;SDS011;15464;50.988;10.318;2022-09-23T07:10:14;11.85;;;7.68;;
28180;SDS011;15464;50.988;10.318;2022-09-23T07:12:41;7.90;;;6.57;;
28180;SDS011;15464;50.988;10.318;2022-09-23T07:15:07;9.35;;;7.18;;
28180;SDS011;15464;50.988;10.318;2022-09-23T07:17:35;7.63;;;5.95;;
28180;SDS011;15464;50.988;10.318;2022-09-23T07:20:02;6.90;;;6.20;;
28180;SDS011;15464;50.988;10.318;2022-09-23T07:22:29;8.88;;;6.53;;
28180;SDS011;15464;50.988;10.318;2022-09-23T07:24:55;7.22;;;6.32;;
28180;SDS011;15464;50.988;10.318;2022-09-23T07:27:23;13.10;;;6.38;;
28180;SDS011;15464;50.988;10.318;2022-09-23T07:29:51;8.23;;;5.53;;
28180;SDS011;15464;50.988;10.318;2022-09-23T07:32:18;6.97;;;5.00;;
28180;SDS011;15464;50.988;10.318;2022-09-23T07:34:47;5.65;;;5.05;;
28180;SDS011;15464;50.988;10.318;2022-09-23T07:37:14;7.38;;;5.20;;
28180;SDS011;15464;50.988;10.318;2022-09-23T07:39:42;7.18;;;5.07;;
28180;SDS011;15464;50.988;10.318;2022-09-23T07:42:10;7.18;;;4.82;;
28180;SDS011;15464;50.988;10.318;2022-09-23T07:44:38;7.15;;;5.28;;
28180;SDS011;15464;50.988;10.318;2022-09-23T07:47:09;6.45;;;5.07;;
28180;SDS011;15464;50.988;10.318;2022-09-23T07:49:36;7.30;;;4.50;;
28180;SDS011;15464;50.988;10.318;2022-09-23T07:52:03;7.13;;;4.05;;
28180;SDS011;15464;50.988;10.318;2022-09-23T07:54:30;6.45;;;4.50;;
28180;SDS011;15464;50.988;10.318;2022-09-23T07:56:57;4.63;;;3.97;;
28180;SDS011;15464;50.988;10.318;2022-09-23T07:59:25;4.82;;;3.92;;
28180;SDS011;15464;50.988;10.318;2022-09-23T08:01:52;6.68;;;4.28;;
28180;SDS011;15464;50.988;10.318;2022-09-23T08:06:51;6.72;;;5.28;;
28180;SDS011;15464;50.988;10.318;2022-09-23T08:09:24;4.47;;;3.63;;
28180;SDS011;15464;50.988;10.318;2022-09-23T08:11:53;5.68;;;3.80;;
28180;SDS011;15464;50.988;10.318;2022-09-23T08:14:20;4.18;;;3.40;;
28180;SDS011;15464;50.988;10.318;2022-09-23T08:19:17;3.35;;;3.05;;
28180;SDS011;15464;50.988;10.318;2022-09-23T08:21:44;4.40;;;3.15;;
28180;SDS011;15464;50.988;10.318;2022-09-23T08:24:15;10.55;;;3.72;;
28180;SDS011;15464;50.988;10.318;2022-09-23T08:26:47;3.85;;;3.40;;
28180;SDS011;15464;50.988;10.318;2022-09-23T08:29:14;5.93;;;3.60;;
28180;SDS011;15464;50.988;10.318;2022-09-23T08:31:42;6.57;;;3.58;;
28180;SDS011;15464;50.988;10.318;2022-09-23T08:34:09;4.88;;;3.40;;
28180;SDS011;15464;50.988;10.318;2022-09-23T08:36:36;5.43;;;3.60;;
28180;SDS011;15464;50.988;10.318;2022-09-23T08:39:03;9.25;;;3.63;;
28180;SDS011;15464;50.988;10.318;2022-09-23T08:44:44;6.82;;;3.92;;
28180;SDS011;15464;50.988;10.318;2022-09-23T08:50:12;6.90;;;3.35;;
28180;SDS011;15464;50.988;10.318;2022-09-23T08:55:12;5.95;;;3.58;;
28180;SDS011;15464;50.988;10.318;2022-09-23T09:04:17;5.20;;;2.97;;
28180;SDS011;15464;50.988;10.318;2022-09-23T09:07:18;5.28;;;3.10;;
28180;SDS011;15464;50.988;10.318;2022-09-23T09:12:49;4.03;;;2.70;;
28180;SDS011;15464;50.988;10.318;2022-09-23T09:15:25;5.07;;;2.60;;
28180;SDS011;15464;50.988;10.318;2022-09-23T09:18:03;4.10;;;2.72;;
28180;SDS011;15464;50.988;10.318;2022-09-23T09:23:22;6.18;;;2.40;;
28180;SDS011;15464;50.988;10.318;2022-09-23T09:25:58;2.90;;;2.28;;
28180;SDS011;15464;50.988;10.318;2022-09-23T09:28:34;2.83;;;2.15;;
28180;SDS011;15464;50.988;10.318;2022-09-23T09:34:01;2.40;;;2.13;;
28180;SDS011;15464;50.988;10.318;2022-09-23T09:36:45;2.17;;;1.90;;
28180;SDS011;15464;50.988;10.318;2022-09-23T09:39:33;3.70;;;2.30;;
28180;SDS011;15464;50.988;10.318;2022-09-23T09:42:01;3.88;;;2.13;;
28180;SDS011;15464;50.988;10.318;2022-09-23T09:44:31;1.85;;;1.65;;
28180;SDS011;15464;50.988;10.318;2022-09-23T09:52:31;3.83;;;2.85;;
28180;SDS011;15464;50.988;10.318;2022-09-23T10:02:57;2.00;;;1.80;;
28180;SDS011;15464;50.988;10.318;2022-09-23T10:11:03;2.10;;;1.90;;
28180;SDS011;15464;50.988;10.318;2022-09-23T10:16:26;3.45;;;1.85;;
28180;SDS011;15464;50.988;10.318;2022-09-23T10:18:53;1.92;;;1.70;;
28180;SDS011;15464;50.988;10.318;2022-09-23T10:21:22;1.88;;;1.77;;
28180;SDS011;15464;50.988;10.318;2022-09-23T10:23:54;3.25;;;2.00;;
28180;SDS011;15464;50.988;10.318;2022-09-23T10:26:27;2.28;;;1.70;;
28180;SDS011;15464;50.988;10.318;2022-09-23T10:29:03;3.75;;;1.85;;
28180;SDS011;15464;50.988;10.318;2022-09-23T10:31:45;3.55;;;1.90;;
28180;SDS011;15464;50.988;10.318;2022-09-23T10:34:21;1.90;;;1.70;;
28180;SDS011;15464;50.988;10.318;2022-09-23T10:39:42;3.65;;;1.98;;
28180;SDS011;15464;50.988;10.318;2022-09-23T10:45:54;2.35;;;1.75;;
28180;SDS011;15464;50.988;10.318;2022-09-23T10:57:05;3.70;;;2.03;;
28180;SDS011;15464;50.988;10.318;2022-09-23T11:00:15;2.03;;;1.80;;
28180;SDS011;15464;50.988;10.318;2022-09-23T11:03:06;3.20;;;1.90;;
28180;SDS011;15464;50.988;10.318;2022-09-23T11:05:56;2.17;;;1.80;;
28180;SDS011;15464;50.988;10.318;2022-09-23T11:08:36;2.17;;;1.55;;
28180;SDS011;15464;50.988;10.318;2022-09-23T11:11:14;2.03;;;1.65;;
28180;SDS011;15464;50.988;10.318;2022-09-23T11:25:14;4.55;;;1.92;;
28180;SDS011;15464;50.988;10.318;2022-09-23T11:27:53;1.60;;;1.50;;
28180;SDS011;15464;50.988;10.318;2022-09-23T11:30:33;2.47;;;1.45;;
28180;SDS011;15464;50.988;10.318;2022-09-23T11:35:55;2.42;;;1.38;;
28180;SDS011;15464;50.988;10.318;2022-09-23T11:38:30;1.92;;;1.50;;
28180;SDS011;15464;50.988;10.318;2022-09-23T11:41:24;3.67;;;1.55;;
28180;SDS011;15464;50.988;10.318;2022-09-23T11:44:00;2.85;;;1.45;;
28180;SDS011;15464;50.988;10.318;2022-09-23T11:46:40;1.73;;;1.58;;
28180;SDS011;15464;50.988;10.318;2022-09-23T11:52:00;2.30;;;1.63;;
28180;SDS011;15464;50.988;10.318;2022-09-23T11:57:06;1.42;;;1.10;;
28180;SDS011;15464;50.988;10.318;2022-09-23T11:59:41;1.50;;;1.30;;
28180;SDS011;15464;50.988;10.318;2022-09-23T12:04:58;1.98;;;1.50;;
28180;SDS011;15464;50.988;10.318;2022-09-23T12:07:51;1.50;;;1.40;;
28180;SDS011;15464;50.988;10.318;2022-09-23T12:13:27;1.52;;;1.23;;
28180;SDS011;15464;50.988;10.318;2022-09-23T12:22:03;2.95;;;1.00;;
28180;SDS011;15464;50.988;10.318;2022-09-23T12:24:56;1.35;;;1.25;;
28180;SDS011;15464;50.988;10.318;2022-09-23T12:27:42;2.45;;;1.48;;
28180;SDS011;15464;50.988;10.318;2022-09-23T12:30:20;1.98;;;1.20;;
28180;SDS011;15464;50.988;10.318;2022-09-23T12:32:48;3.42;;;1.30;;
28180;SDS011;15464;50.988;10.318;2022-09-23T12:36:01;2.63;;;2.03;;
28180;SDS011;15464;50.988;10.318;2022-09-23T12:38:14;2.13;;;1.30;;
28180;SDS011;15464;50.988;10.318;2022-09-23T12:40:52;1.40;;;1.27;;
28180;SDS011;15464;50.988;10.318;2022-09-23T12:48:44;1.38;;;1.27;;
28180;SDS011;15464;50.988;10.318;2022-09-23T12:51:24;1.20;;;1.10;;
28180;SDS011;15464;50.988;10.318;2022-09-23T13:03:47;1.05;;;0.95;;
28180;SDS011;15464;50.988;10.318;2022-09-23T13:09:18;1.20;;;1.10;;
28180;SDS011;15464;50.988;10.318;2022-09-23T13:11:47;2.05;;;1.05;;
28180;SDS011;15464;50.988;10.318;2022-09-23T13:14:16;1.60;;;1.15;;
28180;SDS011;15464;50.988;10.318;2022-09-23T13:16:52;1.20;;;1.10;;
28180;SDS011;15464;50.988;10.318;2022-09-23T13:27:03;2.13;;;0.90;;
28180;SDS011;15464;50.988;10.318;2022-09-23T13:29:44;1.75;;;1.40;;
28180;SDS011;15464;50.988;10.318;2022-09-23T13:32:12;1.45;;;1.20;;
28180;SDS011;15464;50.988;10.318;2022-09-23T13:34:44;1.70;;;1.30;;
28180;SDS011;15464;50.988;10.318;2022-09-23T13:37:17;1.20;;;1.10;;
28180;SDS011;15464;50.988;10.318;2022-09-23T13:39:48;2.60;;;1.15;;
28180;SDS011;15464;50.988;10.318;2022-09-23T13:42:23;1.77;;;0.90;;
28180;SDS011;15464;50.988;10.318;2022-09-23T13:44:53;1.48;;;1.00;;
28180;SDS011;15464;50.988;10.318;2022-09-23T13:47:23;2.53;;;1.08;;
28180;SDS011;15464;50.988;10.318;2022-09-23T13:49:52;1.58;;;1.02;;
28180;SDS011;15464;50.988;10.318;2022-09-23T13:52:21;1.10;;;0.90;;
28180;SDS011;15464;50.988;10.318;2022-09-23T13:54:51;1.27;;;1.10;;
28180;SDS011;15464;50.988;10.318;2022-09-23T13:59:52;1.63;;;1.00;;
28180;SDS011;15464;50.988;10.318;2022-09-23T14:02:19;1.30;;;1.10;;
28180;SDS011;15464;50.988;10.318;2022-09-23T14:04:46;1.35;;;1.08;;
28180;SDS011;15464;50.988;10.318;2022-09-23T14:07:13;1.30;;;1.00;;
28180;SDS011;15464;50.988;10.318;2022-09-23T14:09:46;1.50;;;1.10;;
28180;SDS011;15464;50.988;10.318;2022-09-23T14:12:15;6.07;;;1.30;;
28180;SDS011;15464;50.988;10.318;2022-09-23T14:14:48;1.23;;;1.13;;
28180;SDS011;15464;50.988;10.318;2022-09-23T14:17:17;1.60;;;1.38;;
28180;SDS011;15464;50.988;10.318;2022-09-23T14:19:48;1.30;;;0.93;;
28180;SDS011;15464;50.988;10.318;2022-09-23T14:22:34;2.25;;;1.00;;
28180;SDS011;15464;50.988;10.318;2022-09-23T14:25:00;2.13;;;1.30;;
28180;SDS011;15464;50.988;10.318;2022-09-23T14:27:29;1.13;;;1.02;;
28180;SDS011;15464;50.988;10.318;2022-09-23T14:29:57;1.30;;;1.15;;
28180;SDS011;15464;50.988;10.318;2022-09-23T14:32:25;1.17;;;1.10;;
28180;SDS011;15464;50.988;10.318;2022-09-23T14:42:49;2.30;;;1.42;;
28180;SDS011;15464;50.988;10.318;2022-09-23T14:45:19;1.48;;;0.90;;
28180;SDS011;15464;50.988;10.318;2022-09-23T14:47:52;1.58;;;1.05;;
28180;SDS011;15464;50.988;10.318;2022-09-23T14:50:25;1.17;;;1.08;;
28180;SDS011;15464;50.988;10.318;2022-09-23T14:55:51;2.22;;;1.25;;
28180;SDS011;15464;50.988;10.318;2022-09-23T14:58:24;1.95;;;1.17;;
28180;SDS011;15464;50.988;10.318;2022-09-23T15:00:57;2.03;;;1.00;;
28180;SDS011;15464;50.988;10.318;2022-09-23T15:03:26;1.48;;;1.10;;
28180;SDS011;15464;50.988;10.318;2022-09-23T15:05:57;0.98;;;0.88;;
28180;SDS011;15464;50.988;10.318;2022-09-23T15:08:33;1.40;;;1.20;;
28180;SDS011;15464;50.988;10.318;2022-09-23T15:11:04;0.93;;;0.80;;
28180;SDS011;15464;50.988;10.318;2022-09-23T15:13:37;1.20;;;1.00;;
28180;SDS011;15464;50.988;10.318;2022-09-23T15:16:06;1.20;;;0.98;;
28180;SDS011;15464;50.988;10.318;2022-09-23T15:18:34;1.38;;;1.20;;
28180;SDS011;15464;50.988;10.318;2022-09-23T15:21:07;1.55;;;1.00;;
28180;SDS011;15464;50.988;10.318;2022-09-23T15:26:13;1.38;;;1.27;;
28180;SDS011;15464;50.988;10.318;2022-09-23T15:28:41;2.13;;;1.00;;
28180;SDS011;15464;50.988;10.318;2022-09-23T15:31:12;1.10;;;1.00;;
28180;SDS011;15464;50.988;10.318;2022-09-23T15:33:44;1.30;;;1.20;;
28180;SDS011;15464;50.988;10.318;2022-09-23T15:36:19;1.30;;;1.20;;
28180;SDS011;15464;50.988;10.318;2022-09-23T15:38:48;2.70;;;1.23;;
28180;SDS011;15464;50.988;10.318;2022-09-23T15:41:15;1.35;;;1.17;;
28180;SDS011;15464;50.988;10.318;2022-09-23T15:43:42;2.60;;;1.40;;
28180;SDS011;15464;50.988;10.318;2022-09-23T15:46:19;1.17;;;1.08;;
28180;SDS011;15464;50.988;10.318;2022-09-23T15:49:01;1.83;;;1.30;;
28180;SDS011;15464;50.988;10.318;2022-09-23T15:51:31;4.72;;;1.20;;
28180;SDS011;15464;50.988;10.318;2022-09-23T15:53:58;1.52;;;1.15;;
28180;SDS011;15464;50.988;10.318;2022-09-23T15:56:25;3.03;;;1.10;;
28180;SDS011;15464;50.988;10.318;2022-09-23T16:01:30;3.13;;;1.30;;
28180;SDS011;15464;50.988;10.318;2022-09-23T16:03:59;1.85;;;1.40;;
28180;SDS011;15464;50.988;10.318;2022-09-23T16:06:27;2.80;;;1.58;;
28180;SDS011;15464;50.988;10.318;2022-09-23T16:08:53;2.30;;;1.88;;
28180;SDS011;15464;50.988;10.318;2022-09-23T16:11:21;1.92;;;1.40;;
28180;SDS011;15464;50.988;10.318;2022-09-23T16:13:58;1.98;;;1.40;;
28180;SDS011;15464;50.988;10.318;2022-09-23T16:16:26;2.83;;;1.20;;
28180;SDS011;15464;50.988;10.318;2022-09-23T16:18:53;2.92;;;1.80;;
28180;SDS011;15464;50.988;10.318;2022-09-23T16:21:21;2.08;;;1.88;;
28180;SDS011;15464;50.988;10.318;2022-09-23T16:23:52;2.58;;;1.50;;
28180;SDS011;15464;50.988;10.318;2022-09-23T16:26:29;3.13;;;1.65;;
28180;SDS011;15464;50.988;10.318;2022-09-23T16:28:59;1.90;;;1.45;;
28180;SDS011;15464;50.988;10.318;2022-09-23T16:31:27;1.73;;;1.50;;
28180;SDS011;15464;50.988;10.318;2022-09-23T16:33:57;2.15;;;1.42;;
28180;SDS011;15464;50.988;10.318;2022-09-23T16:36:31;1.40;;;1.25;;
28180;SDS011;15464;50.988;10.318;2022-09-23T16:39:05;3.72;;;1.30;;
28180;SDS011;15464;50.988;10.318;2022-09-23T16:41:34;1.70;;;1.48;;
28180;SDS011;15464;50.988;10.318;2022-09-23T16:44:01;2.10;;;1.50;;
28180;SDS011;15464;50.988;10.318;2022-09-23T16:46:30;1.95;;;1.77;;
28180;SDS011;15464;50.988;10.318;2022-09-23T16:48:57;2.13;;;1.92;;
28180;SDS011;15464;50.988;10.318;2022-09-23T16:51:25;2.45;;;2.15;;
28180;SDS011;15464;50.988;10.318;2022-09-23T16:53:55;2.45;;;2.20;;
28180;SDS011;15464;50.988;10.318;2022-09-23T16:56:24;3.60;;;2.05;;
28180;SDS011;15464;50.988;10.318;2022-09-23T16:58:54;2.28;;;2.03;;
28180;SDS011;15464;50.988;10.318;2022-09-23T17:01:22;4.78;;;2.40;;
28180;SDS011;15464;50.988;10.318;2022-09-23T17:04:10;3.95;;;2.65;;
28180;SDS011;15464;50.988;10.318;2022-09-23T17:06:46;5.05;;;2.67;;
28180;SDS011;15464;50.988;10.318;2022-09-23T17:09:19;4.00;;;2.95;;
28180;SDS011;15464;50.988;10.318;2022-09-23T17:11:51;3.47;;;2.70;;
28180;SDS011;15464;50.988;10.318;2022-09-23T17:14:28;4.50;;;3.30;;
28180;SDS011;15464;50.988;10.318;2022-09-23T17:16:57;4.47;;;3.78;;
28180;SDS011;15464;50.988;10.318;2022-09-23T17:19:24;7.30;;;3.83;;
28180;SDS011;15464;50.988;10.318;2022-09-23T17:21:51;6.88;;;4.60;;
28180;SDS011;15464;50.988;10.318;2022-09-23T17:24:18;5.55;;;4.47;;
28180;SDS011;15464;50.988;10.318;2022-09-23T17:26:45;8.15;;;4.28;;
28180;SDS011;15464;50.988;10.318;2022-09-23T17:29:18;4.68;;;4.28;;
28180;SDS011;15464;50.988;10.318;2022-09-23T17:31:44;5.15;;;4.30;;
28180;SDS011;15464;50.988;10.318;2022-09-23T17:34:11;6.50;;;4.82;;
28180;SDS011;15464;50.988;10.318;2022-09-23T17:36:38;40.17;;;33.53;;
28180;SDS011;15464;50.988;10.318;2022-09-23T17:39:05;15.10;;;13.27;;
28180;SDS011;15464;50.988;10.318;2022-09-23T17:41:32;13.68;;;11.77;;
28180;SDS011;15464;50.988;10.318;2022-09-23T17:43:59;11.45;;;9.85;;
28180;SDS011;15464;50.988;10.318;2022-09-23T17:46:26;19.25;;;14.00;;
28180;SDS011;15464;50.988;10.318;2022-09-23T17:48:55;15.27;;;12.30;;
28180;SDS011;15464;50.988;10.318;2022-09-23T17:51:22;18.92;;;15.23;;
28180;SDS011;15464;50.988;10.318;2022-09-23T17:53:52;15.88;;;12.60;;
28180;SDS011;15464;50.988;10.318;2022-09-23T17:56:20;11.45;;;9.10;;
28180;SDS011;15464;50.988;10.318;2022-09-23T17:58:48;8.45;;;7.00;;
28180;SDS011;15464;50.988;10.318;2022-09-23T18:01:19;9.02;;;7.75;;
28180;SDS011;15464;50.988;10.318;2022-09-23T18:03:51;9.65;;;7.03;;
28180;SDS011;15464;50.988;10.318;2022-09-23T18:06:26;6.72;;;6.03;;
28180;SDS011;15464;50.988;10.318;2022-09-23T18:08:54;8.23;;;6.20;;
28180;SDS011;15464;50.988;10.318;2022-09-23T18:13:52;6.70;;;5.35;;
28180;SDS011;15464;50.988;10.318;2022-09-23T18:16:24;6.38;;;5.55;;
28180;SDS011;15464;50.988;10.318;2022-09-23T18:19:11;8.95;;;5.50;;
28180;SDS011;15464;50.988;10.318;2022-09-23T18:21:40;7.47;;;5.45;;
28180;SDS011;15464;50.988;10.318;2022-09-23T18:26:56;6.28;;;4.65;;
28180;SDS011;15464;50.988;10.318;2022-09-23T18:29:25;6.97;;;4.82;;
28180;SDS011;15464;50.988;10.318;2022-09-23T18:31:51;6.47;;;4.68;;
28180;SDS011;15464;50.988;10.318;2022-09-23T18:34:18;6.22;;;4.30;;
28180;SDS011;15464;50.988;10.318;2022-09-23T18:36:45;5.00;;;4.47;;
28180;SDS011;15464;50.988;10.318;2022-09-23T18:39:12;5.70;;;4.60;;
28180;SDS011;15464;50.988;10.318;2022-09-23T18:41:38;5.43;;;4.65;;
28180;SDS011;15464;50.988;10.318;2022-09-23T18:44:06;7.20;;;4.75;;
28180;SDS011;15464;50.988;10.318;2022-09-23T18:46:33;6.80;;;4.82;;
28180;SDS011;15464;50.988;10.318;2022-09-23T18:49:01;9.50;;;6.20;;
28180;SDS011;15464;50.988;10.318;2022-09-23T18:51:49;8.25;;;6.15;;
28180;SDS011;15464;50.988;10.318;2022-09-23T18:54:19;8.02;;;5.50;;
28180;SDS011;15464;50.988;10.318;2022-09-23T18:56:47;6.35;;;4.97;;
28180;SDS011;15464;50.988;10.318;2022-09-23T18:59:18;6.95;;;5.07;;
28180;SDS011;15464;50.988;10.318;2022-09-23T19:01:49;6.30;;;5.28;;
28180;SDS011;15464;50.988;10.318;2022-09-23T19:04:17;7.18;;;5.68;;
28180;SDS011;15464;50.988;10.318;2022-09-23T19:06:45;7.82;;;6.57;;
28180;SDS011;15464;50.988;10.318;2022-09-23T19:09:13;7.63;;;6.88;;
28180;SDS011;15464;50.988;10.318;2022-09-23T19:11:42;11.98;;;7.30;;
28180;SDS011;15464;50.988;10.318;2022-09-23T19:14:09;9.63;;;7.35;;
28180;SDS011;15464;50.988;10.318;2022-09-23T19:16:38;8.20;;;6.72;;
28180;SDS011;15464;50.988;10.318;2022-09-23T19:19:06;11.00;;;7.43;;
28180;SDS011;15464;50.988;10.318;2022-09-23T19:21:33;8.38;;;7.40;;
28180;SDS011;15464;50.988;10.318;2022-09-23T19:24:02;10.23;;;7.43;;
28180;SDS011;15464;50.988;10.318;2022-09-23T19:26:32;9.43;;;8.43;;
28180;SDS011;15464;50.988;10.318;2022-09-23T19:29:11;11.45;;;8.75;;
28180;SDS011;15464;50.988;10.318;2022-09-23T19:31:40;10.93;;;9.10;;
28180;SDS011;15464;50.988;10.318;2022-09-23T19:34:11;11.52;;;9.00;;
28180;SDS011;15464;50.988;10.318;2022-09-23T19:36:41;10.10;;;9.00;;
28180;SDS011;15464;50.988;10.318;2022-09-23T19:41:46;9.50;;;8.00;;
28180;SDS011;15464;50.988;10.318;2022-09-23T19:44:14;11.07;;;8.90;;
28180;SDS011;15464;50.988;10.318;2022-09-23T19:46:42;10.95;;;8.77;;
28180;SDS011;15464;50.988;10.318;2022-09-23T19:49:21;10.65;;;9.00;;
28180;SDS011;15464;50.988;10.318;2022-09-23T19:51:49;12.88;;;8.65;;
28180;SDS011;15464;50.988;10.318;2022-09-23T19:54:15;14.60;;;8.68;;
28180;SDS011;15464;50.988;10.318;2022-09-23T19:56:46;9.88;;;8.43;;
28180;SDS011;15464;50.988;10.318;2022-09-23T19:59:15;10.07;;;8.73;;
28180;SDS011;15464;50.988;10.318;2022-09-23T20:04:11;12.40;;;8.82;;
28180;SDS011;15464;50.988;10.318;2022-09-23T20:06:38;9.38;;;8.38;;
28180;SDS011;15464;50.988;10.318;2022-09-23T20:09:04;11.95;;;9.50;;
28180;SDS011;15464;50.988;10.318;2022-09-23T20:11:31;11.07;;;9.05;;
28180;SDS011;15464;50.988;10.318;2022-09-23T20:13:59;11.05;;;9.00;;
28180;SDS011;15464;50.988;10.318;2022-09-23T20:16:28;10.57;;;8.80;;
28180;SDS011;15464;50.988;10.318;2022-09-23T20:18:58;10.73;;;9.52;;
28180;SDS011;15464;50.988;10.318;2022-09-23T20:21:26;11.55;;;8.75;;
28180;SDS011;15464;50.988;10.318;2022-09-23T20:23:55;10.93;;;8.43;;
28180;SDS011;15464;50.988;10.318;2022-09-23T20:26:22;13.10;;;9.35;;
28180;SDS011;15464;50.988;10.318;2022-09-23T20:29:07;10.35;;;8.57;;
28180;SDS011;15464;50.988;10.318;2022-09-23T20:31:36;10.97;;;8.67;;
28180;SDS011;15464;50.988;10.318;2022-09-23T20:34:03;10.68;;;9.02;;
28180;SDS011;15464;50.988;10.318;2022-09-23T20:36:32;10.95;;;8.52;;
28180;SDS011;15464;50.988;10.318;2022-09-23T20:39:00;10.57;;;7.85;;
28180;SDS011;15464;50.988;10.318;2022-09-23T20:41:32;11.20;;;8.05;;
28180;SDS011;15464;50.988;10.318;2022-09-23T20:44:03;9.98;;;8.02;;
28180;SDS011;15464;50.988;10.318;2022-09-23T20:46:33;9.18;;;7.85;;
28180;SDS011;15464;50.988;10.318;2022-09-23T20:49:00;10.93;;;7.40;;
28180;SDS011;15464;50.988;10.318;2022-09-23T20:51:27;8.18;;;6.88;;
28180;SDS011;15464;50.988;10.318;2022-09-23T20:53:54;9.98;;;7.40;;
28180;SDS011;15464;50.988;10.318;2022-09-23T20:56:21;10.63;;;7.72;;
28180;SDS011;15464;50.988;10.318;2022-09-23T20:58:48;9.48;;;7.55;;
28180;SDS011;15464;50.988;10.318;2022-09-23T21:01:17;10.48;;;6.95;;
28180;SDS011;15464;50.988;10.318;2022-09-23T21:03:45;11.80;;;7.45;;
28180;SDS011;15464;50.988;10.318;2022-09-23T21:06:15;9.57;;;7.47;;
28180;SDS011;15464;50.988;10.318;2022-09-23T21:08:44;9.07;;;7.30;;
28180;SDS011;15464;50.988;10.318;2022-09-23T21:11:12;8.80;;;7.03;;
28180;SDS011;15464;50.988;10.318;2022-09-23T21:13:47;8.23;;;6.63;;
28180;SDS011;15464;50.988;10.318;2022-09-23T21:16:16;11.77;;;7.22;;
28180;SDS011;15464;50.988;10.318;2022-09-23T21:18:44;10.45;;;7.85;;
28180;SDS011;15464;50.988;10.318;2022-09-23T21:21:11;7.50;;;6.70;;